sensor_id;sensor_type;location;lat;lon;timestamp;temperature;humidity
51837;DHT22;38941;53.254;6.600;2023-08-30T00:00:04;15.10;99.90
51837;DHT22;38941;53.254;6.600;2023-08-30T00:02:05;15.10;99.90
51837;DHT22;38941;53.254;6.600;2023-08-30T00:04:06;15.10;99.90
51837;DHT22;38941;53.254;6.600;2023-08-30T00:06:07;15.10;99.90
51837;DHT22;38941;53.254;6.600;2023-08-30T00:08:09;15.10;99.90
51837;DHT22;38941;53.254;6.600;2023-08-30T00:10:10;16.10;99.90
51837;DHT22;38941;53.254;6.600;2023-08-30T00:12:11;15.00;99.90
51837;DHT22;38941;53.254;6.600;2023-08-30T00:14:11;15.00;99.90
51837;DHT22;38941;53.254;6.600;2023-08-30T00:16:12;15.00;99.90
51837;DHT22;38941;53.254;6.600;2023-08-30T00:18:13;15.00;99.90
51837;DHT22;38941;53.254;6.600;2023-08-30T00:20:14;15.00;99.90
51837;DHT22;38941;53.254;6.600;2023-08-30T00:22:15;15.00;99.90
51837;DHT22;38941;53.254;6.600;2023-08-30T00:24:15;14.90;99.90
51837;DHT22;38941;53.254;6.600;2023-08-30T00:26:16;14.90;99.90
51837;DHT22;38941;53.254;6.600;2023-08-30T00:28:17;14.90;99.90
51837;DHT22;38941;53.254;6.600;2023-08-30T00:30:18;15.00;99.90
51837;DHT22;38941;53.254;6.600;2023-08-30T00:32:19;14.80;99.90
51837;DHT22;38941;53.254;6.600;2023-08-30T00:34:20;14.80;99.90
51837;DHT22;38941;53.254;6.600;2023-08-30T00:36:21;14.80;99.90
51837;DHT22;38941;53.254;6.600;2023-08-30T00:38:22;14.70;99.90
51837;DHT22;38941;53.254;6.600;2023-08-30T00:40:24;14.70;99.90
51837;DHT22;38941;53.254;6.600;2023-08-30T00:42:25;14.70;99.90
51837;DHT22;38941;53.254;6.600;2023-08-30T00:44:26;14.70;99.90
51837;DHT22;38941;53.254;6.600;2023-08-30T00:46:27;14.60;99.90
51837;DHT22;38941;53.254;6.600;2023-08-30T00:48:28;14.60;99.90
51837;DHT22;38941;53.254;6.600;2023-08-30T00:50:29;14.70;99.90
51837;DHT22;38941;53.254;6.600;2023-08-30T00:52:30;14.60;99.90
51837;DHT22;38941;53.254;6.600;2023-08-30T00:54:31;14.50;99.90
51837;DHT22;38941;53.254;6.600;2023-08-30T00:56:32;14.40;99.90
51837;DHT22;38941;53.254;6.600;2023-08-30T00:58:34;14.50;99.90
51837;DHT22;38941;53.254;6.600;2023-08-30T01:00:35;14.40;99.90
51837;DHT22;38941;53.254;6.600;2023-08-30T01:02:36;13.70;99.90
51837;DHT22;38941;53.254;6.600;2023-08-30T01:04:37;14.30;99.90
51837;DHT22;38941;53.254;6.600;2023-08-30T01:06:38;14.30;99.90
51837;DHT22;38941;53.254;6.600;2023-08-30T01:08:40;14.30;99.90
51837;DHT22;38941;53.254;6.600;2023-08-30T01:13:06;14.20;99.90
51837;DHT22;38941;53.254;6.600;2023-08-30T01:15:16;14.20;99.90
51837;DHT22;38941;53.254;6.600;2023-08-30T01:17:19;14.20;99.90
51837;DHT22;38941;53.254;6.600;2023-08-30T01:19:36;14.10;99.90
51837;DHT22;38941;53.254;6.600;2023-08-30T01:21:53;14.10;99.90
51837;DHT22;38941;53.254;6.600;2023-08-30T01:23:59;14.10;99.90
51837;DHT22;38941;53.254;6.600;2023-08-30T01:26:37;14.00;99.90
51837;DHT22;38941;53.254;6.600;2023-08-30T01:28:35;14.00;99.90
51837;DHT22;38941;53.254;6.600;2023-08-30T01:30:40;14.00;99.90
51837;DHT22;38941;53.254;6.600;2023-08-30T01:32:43;14.00;99.90
51837;DHT22;38941;53.254;6.600;2023-08-30T01:34:44;14.00;99.90
51837;DHT22;38941;53.254;6.600;2023-08-30T01:36:47;14.00;99.90
51837;DHT22;38941;53.254;6.600;2023-08-30T01:38:49;14.00;99.90
51837;DHT22;38941;53.254;6.600;2023-08-30T01:40:51;14.00;99.90
51837;DHT22;38941;53.254;6.600;2023-08-30T01:42:53;14.00;99.90
51837;DHT22;38941;53.254;6.600;2023-08-30T01:44:56;14.00;99.90
51837;DHT22;38941;53.254;6.600;2023-08-30T01:46:58;14.00;99.90
51837;DHT22;38941;53.254;6.600;2023-08-30T01:49:02;14.30;99.90
51837;DHT22;38941;53.254;6.600;2023-08-30T01:51:03;14.00;99.90
51837;DHT22;38941;53.254;6.600;2023-08-30T01:53:04;14.00;99.90
51837;DHT22;38941;53.254;6.600;2023-08-30T01:55:07;13.90;99.90
51837;DHT22;38941;53.254;6.600;2023-08-30T01:57:08;13.90;99.90
51837;DHT22;38941;53.254;6.600;2023-08-30T01:59:09;13.90;99.90
51837;DHT22;38941;53.254;6.600;2023-08-30T02:01:10;13.90;99.90
51837;DHT22;38941;53.254;6.600;2023-08-30T02:03:12;13.90;99.90
51837;DHT22;38941;53.254;6.600;2023-08-30T02:05:13;13.90;99.90
51837;DHT22;38941;53.254;6.600;2023-08-30T02:07:19;13.80;99.90
51837;DHT22;38941;53.254;6.600;2023-08-30T02:11:49;13.90;99.90
51837;DHT22;38941;53.254;6.600;2023-08-30T02:13:53;13.80;99.90
51837;DHT22;38941;53.254;6.600;2023-08-30T02:15:55;13.80;99.90
51837;DHT22;38941;53.254;6.600;2023-08-30T02:17:57;13.80;99.90
51837;DHT22;38941;53.254;6.600;2023-08-30T02:19:59;13.80;99.90
51837;DHT22;38941;53.254;6.600;2023-08-30T02:22:00;13.70;99.90
51837;DHT22;38941;53.254;6.600;2023-08-30T02:24:00;13.70;99.90
51837;DHT22;38941;53.254;6.600;2023-08-30T02:26:01;13.70;99.90
51837;DHT22;38941;53.254;6.600;2023-08-30T02:28:04;13.70;99.90
51837;DHT22;38941;53.254;6.600;2023-08-30T02:30:05;13.70;99.90
51837;DHT22;38941;53.254;6.600;2023-08-30T02:32:06;13.70;99.90
51837;DHT22;38941;53.254;6.600;2023-08-30T02:34:07;13.70;99.90
51837;DHT22;38941;53.254;6.600;2023-08-30T02:36:07;13.70;99.90
51837;DHT22;38941;53.254;6.600;2023-08-30T02:38:08;13.70;99.90
51837;DHT22;38941;53.254;6.600;2023-08-30T02:40:09;13.70;99.90
51837;DHT22;38941;53.254;6.600;2023-08-30T02:42:10;13.70;99.90
51837;DHT22;38941;53.254;6.600;2023-08-30T02:44:11;13.70;99.90
51837;DHT22;38941;53.254;6.600;2023-08-30T02:46:12;13.70;99.90
51837;DHT22;38941;53.254;6.600;2023-08-30T02:48:14;13.80;99.90
51837;DHT22;38941;53.254;6.600;2023-08-30T02:50:14;13.80;99.90
51837;DHT22;38941;53.254;6.600;2023-08-30T02:52:16;13.70;99.90
51837;DHT22;38941;53.254;6.600;2023-08-30T02:54:17;13.80;99.90
51837;DHT22;38941;53.254;6.600;2023-08-30T02:56:18;13.80;99.90
51837;DHT22;38941;53.254;6.600;2023-08-30T02:58:18;13.80;99.90
51837;DHT22;38941;53.254;6.600;2023-08-30T03:00:19;13.80;99.90
51837;DHT22;38941;53.254;6.600;2023-08-30T03:02:23;13.80;99.90
51837;DHT22;38941;53.254;6.600;2023-08-30T03:04:24;13.80;99.90
51837;DHT22;38941;53.254;6.600;2023-08-30T03:06:24;13.80;99.90
51837;DHT22;38941;53.254;6.600;2023-08-30T03:08:25;13.80;99.90
51837;DHT22;38941;53.254;6.600;2023-08-30T03:10:26;13.80;99.90
51837;DHT22;38941;53.254;6.600;2023-08-30T03:12:26;13.80;99.90
51837;DHT22;38941;53.254;6.600;2023-08-30T03:14:27;13.70;99.90
51837;DHT22;38941;53.254;6.600;2023-08-30T03:16:28;13.80;99.90
51837;DHT22;38941;53.254;6.600;2023-08-30T03:18:29;13.70;99.90
51837;DHT22;38941;53.254;6.600;2023-08-30T03:20:30;13.70;99.90
51837;DHT22;38941;53.254;6.600;2023-08-30T03:22:31;13.70;99.90
51837;DHT22;38941;53.254;6.600;2023-08-30T03:24:32;13.60;99.90
51837;DHT22;38941;53.254;6.600;2023-08-30T03:26:33;13.60;99.90
51837;DHT22;38941;53.254;6.600;2023-08-30T03:28:33;13.50;99.90
51837;DHT22;38941;53.254;6.600;2023-08-30T03:30:34;13.60;99.90
51837;DHT22;38941;53.254;6.600;2023-08-30T03:32:35;13.50;99.90
51837;DHT22;38941;53.254;6.600;2023-08-30T03:34:36;13.40;99.90
51837;DHT22;38941;53.254;6.600;2023-08-30T03:36:37;13.40;99.90
51837;DHT22;38941;53.254;6.600;2023-08-30T03:38:38;13.40;99.90
51837;DHT22;38941;53.254;6.600;2023-08-30T03:40:40;13.40;99.90
51837;DHT22;38941;53.254;6.600;2023-08-30T03:42:41;13.40;99.90
51837;DHT22;38941;53.254;6.600;2023-08-30T03:44:41;13.30;99.90
51837;DHT22;38941;53.254;6.600;2023-08-30T03:46:42;13.30;99.90
51837;DHT22;38941;53.254;6.600;2023-08-30T03:48:43;13.30;99.90
51837;DHT22;38941;53.254;6.600;2023-08-30T03:50:44;13.30;99.90
51837;DHT22;38941;53.254;6.600;2023-08-30T03:52:44;13.20;99.90
51837;DHT22;38941;53.254;6.600;2023-08-30T03:54:45;13.20;99.90
51837;DHT22;38941;53.254;6.600;2023-08-30T03:56:46;13.20;99.90
51837;DHT22;38941;53.254;6.600;2023-08-30T03:58:47;13.20;99.90
51837;DHT22;38941;53.254;6.600;2023-08-30T04:00:48;13.10;99.90
51837;DHT22;38941;53.254;6.600;2023-08-30T04:02:49;13.10;99.90
51837;DHT22;38941;53.254;6.600;2023-08-30T04:04:50;13.10;99.90
51837;DHT22;38941;53.254;6.600;2023-08-30T04:06:50;13.10;99.90
51837;DHT22;38941;53.254;6.600;2023-08-30T04:08:51;13.10;99.90
51837;DHT22;38941;53.254;6.600;2023-08-30T04:10:53;13.10;99.90
51837;DHT22;38941;53.254;6.600;2023-08-30T04:12:54;13.00;99.90
51837;DHT22;38941;53.254;6.600;2023-08-30T04:14:55;13.00;99.90
51837;DHT22;38941;53.254;6.600;2023-08-30T04:16:56;13.00;99.90
51837;DHT22;38941;53.254;6.600;2023-08-30T04:18:56;13.00;99.90
51837;DHT22;38941;53.254;6.600;2023-08-30T04:20:58;13.00;99.90
51837;DHT22;38941;53.254;6.600;2023-08-30T04:23:00;13.00;99.90
51837;DHT22;38941;53.254;6.600;2023-08-30T04:25:04;13.00;99.90
51837;DHT22;38941;53.254;6.600;2023-08-30T04:27:05;13.00;99.90
51837;DHT22;38941;53.254;6.600;2023-08-30T04:29:05;13.70;99.90
51837;DHT22;38941;53.254;6.600;2023-08-30T04:31:06;13.00;99.90
51837;DHT22;38941;53.254;6.600;2023-08-30T04:33:07;13.00;99.90
51837;DHT22;38941;53.254;6.600;2023-08-30T04:35:08;13.00;99.90
51837;DHT22;38941;53.254;6.600;2023-08-30T04:37:09;13.00;99.90
51837;DHT22;38941;53.254;6.600;2023-08-30T04:39:10;12.90;99.90
51837;DHT22;38941;53.254;6.600;2023-08-30T04:41:11;13.00;99.90
51837;DHT22;38941;53.254;6.600;2023-08-30T04:43:12;13.00;99.90
51837;DHT22;38941;53.254;6.600;2023-08-30T04:45:12;12.90;99.90
51837;DHT22;38941;53.254;6.600;2023-08-30T04:47:13;12.90;99.90
51837;DHT22;38941;53.254;6.600;2023-08-30T04:49:14;12.90;99.90
51837;DHT22;38941;53.254;6.600;2023-08-30T04:51:15;12.90;99.90
51837;DHT22;38941;53.254;6.600;2023-08-30T04:53:15;12.90;99.90
51837;DHT22;38941;53.254;6.600;2023-08-30T04:55:16;12.90;99.90
51837;DHT22;38941;53.254;6.600;2023-08-30T04:57:17;12.90;99.90
51837;DHT22;38941;53.254;6.600;2023-08-30T04:59:18;12.90;99.90
51837;DHT22;38941;53.254;6.600;2023-08-30T05:01:19;12.90;99.90
51837;DHT22;38941;53.254;6.600;2023-08-30T05:03:19;13.00;99.90
51837;DHT22;38941;53.254;6.600;2023-08-30T05:05:22;13.00;99.90
51837;DHT22;38941;53.254;6.600;2023-08-30T05:07:23;13.00;99.90
51837;DHT22;38941;53.254;6.600;2023-08-30T05:09:24;13.00;99.90
51837;DHT22;38941;53.254;6.600;2023-08-30T05:11:25;13.00;99.90
51837;DHT22;38941;53.254;6.600;2023-08-30T05:13:26;13.00;99.90
51837;DHT22;38941;53.254;6.600;2023-08-30T05:15:26;13.00;99.90
51837;DHT22;38941;53.254;6.600;2023-08-30T05:17:27;13.10;99.90
51837;DHT22;38941;53.254;6.600;2023-08-30T05:19:29;13.10;99.90
51837;DHT22;38941;53.254;6.600;2023-08-30T05:21:29;13.10;99.90
51837;DHT22;38941;53.254;6.600;2023-08-30T05:23:31;13.10;99.90
51837;DHT22;38941;53.254;6.600;2023-08-30T05:25:32;13.20;99.90
51837;DHT22;38941;53.254;6.600;2023-08-30T05:27:35;13.20;99.90
51837;DHT22;38941;53.254;6.600;2023-08-30T05:29:36;13.20;99.90
51837;DHT22;38941;53.254;6.600;2023-08-30T05:31:37;13.20;99.90
51837;DHT22;38941;53.254;6.600;2023-08-30T05:33:37;13.30;99.90
51837;DHT22;38941;53.254;6.600;2023-08-30T05:35:38;13.30;99.90
51837;DHT22;38941;53.254;6.600;2023-08-30T05:37:39;13.30;99.90
51837;DHT22;38941;53.254;6.600;2023-08-30T05:39:39;13.30;99.90
51837;DHT22;38941;53.254;6.600;2023-08-30T05:41:40;13.30;99.90
51837;DHT22;38941;53.254;6.600;2023-08-30T05:43:41;13.30;99.90
51837;DHT22;38941;53.254;6.600;2023-08-30T05:45:41;13.30;99.90
51837;DHT22;38941;53.254;6.600;2023-08-30T05:47:42;13.40;99.90
51837;DHT22;38941;53.254;6.600;2023-08-30T05:49:44;13.40;99.90
51837;DHT22;38941;53.254;6.600;2023-08-30T05:51:45;13.40;99.90
51837;DHT22;38941;53.254;6.600;2023-08-30T05:53:45;13.40;99.90
51837;DHT22;38941;53.254;6.600;2023-08-30T05:55:46;13.40;99.90
51837;DHT22;38941;53.254;6.600;2023-08-30T05:57:47;13.40;99.90
51837;DHT22;38941;53.254;6.600;2023-08-30T05:59:48;13.40;99.90
51837;DHT22;38941;53.254;6.600;2023-08-30T06:01:48;13.40;99.90
51837;DHT22;38941;53.254;6.600;2023-08-30T06:03:49;13.40;99.90
51837;DHT22;38941;53.254;6.600;2023-08-30T06:05:50;13.40;99.90
51837;DHT22;38941;53.254;6.600;2023-08-30T06:07:52;13.40;99.90
51837;DHT22;38941;53.254;6.600;2023-08-30T06:09:53;13.40;99.90
51837;DHT22;38941;53.254;6.600;2023-08-30T06:11:54;13.50;99.90
51837;DHT22;38941;53.254;6.600;2023-08-30T06:13:54;13.70;99.90
51837;DHT22;38941;53.254;6.600;2023-08-30T06:15:55;13.60;99.90
51837;DHT22;38941;53.254;6.600;2023-08-30T06:17:56;13.60;99.90
51837;DHT22;38941;53.254;6.600;2023-08-30T06:19:57;13.60;99.90
51837;DHT22;38941;53.254;6.600;2023-08-30T06:21:57;13.70;99.90
51837;DHT22;38941;53.254;6.600;2023-08-30T06:23:58;13.80;99.90
51837;DHT22;38941;53.254;6.600;2023-08-30T06:25:59;13.80;99.90
51837;DHT22;38941;53.254;6.600;2023-08-30T06:28:01;13.90;99.90
51837;DHT22;38941;53.254;6.600;2023-08-30T06:30:04;14.00;99.90
51837;DHT22;38941;53.254;6.600;2023-08-30T06:32:05;14.10;99.90
51837;DHT22;38941;53.254;6.600;2023-08-30T06:34:06;14.10;99.90
51837;DHT22;38941;53.254;6.600;2023-08-30T06:36:06;14.20;99.90
51837;DHT22;38941;53.254;6.600;2023-08-30T06:38:07;14.20;99.90
51837;DHT22;38941;53.254;6.600;2023-08-30T06:40:08;14.30;99.90
51837;DHT22;38941;53.254;6.600;2023-08-30T06:42:09;14.30;99.90
51837;DHT22;38941;53.254;6.600;2023-08-30T06:44:09;14.30;99.90
51837;DHT22;38941;53.254;6.600;2023-08-30T06:46:11;14.40;99.90
51837;DHT22;38941;53.254;6.600;2023-08-30T06:48:11;14.40;99.90
51837;DHT22;38941;53.254;6.600;2023-08-30T06:50:12;14.40;99.90
51837;DHT22;38941;53.254;6.600;2023-08-30T06:52:13;14.40;99.90
51837;DHT22;38941;53.254;6.600;2023-08-30T06:54:14;14.50;99.90
51837;DHT22;38941;53.254;6.600;2023-08-30T06:56:14;14.40;99.90
51837;DHT22;38941;53.254;6.600;2023-08-30T06:58:15;14.50;99.90
51837;DHT22;38941;53.254;6.600;2023-08-30T07:00:16;14.40;99.90
51837;DHT22;38941;53.254;6.600;2023-08-30T07:02:17;14.40;99.90
51837;DHT22;38941;53.254;6.600;2023-08-30T07:04:18;14.40;99.90
51837;DHT22;38941;53.254;6.600;2023-08-30T07:06:19;14.50;99.90
51837;DHT22;38941;53.254;6.600;2023-08-30T07:08:20;14.50;99.90
51837;DHT22;38941;53.254;6.600;2023-08-30T07:10:21;14.60;99.90
51837;DHT22;38941;53.254;6.600;2023-08-30T07:12:22;14.70;99.90
51837;DHT22;38941;53.254;6.600;2023-08-30T07:14:23;14.80;99.90
51837;DHT22;38941;53.254;6.600;2023-08-30T07:16:23;14.90;99.90
51837;DHT22;38941;53.254;6.600;2023-08-30T07:18:24;14.90;99.90
51837;DHT22;38941;53.254;6.600;2023-08-30T07:20:25;14.90;99.90
51837;DHT22;38941;53.254;6.600;2023-08-30T07:22:26;14.90;99.90
51837;DHT22;38941;53.254;6.600;2023-08-30T07:24:27;14.90;99.90
51837;DHT22;38941;53.254;6.600;2023-08-30T07:26:34;14.90;99.90
51837;DHT22;38941;53.254;6.600;2023-08-30T07:28:35;15.00;99.90
51837;DHT22;38941;53.254;6.600;2023-08-30T07:30:35;15.00;99.90
51837;DHT22;38941;53.254;6.600;2023-08-30T07:32:36;15.00;99.90
51837;DHT22;38941;53.254;6.600;2023-08-30T07:34:38;15.00;99.90
51837;DHT22;38941;53.254;6.600;2023-08-30T07:36:39;15.00;99.90
51837;DHT22;38941;53.254;6.600;2023-08-30T07:38:39;15.00;99.90
51837;DHT22;38941;53.254;6.600;2023-08-30T07:40:40;15.00;99.90
51837;DHT22;38941;53.254;6.600;2023-08-30T07:42:41;15.10;99.90
51837;DHT22;38941;53.254;6.600;2023-08-30T07:44:42;15.10;99.90
51837;DHT22;38941;53.254;6.600;2023-08-30T07:46:43;15.20;99.90
51837;DHT22;38941;53.254;6.600;2023-08-30T07:48:52;15.20;99.90
51837;DHT22;38941;53.254;6.600;2023-08-30T07:50:53;15.30;99.90
51837;DHT22;38941;53.254;6.600;2023-08-30T07:52:54;15.50;99.90
51837;DHT22;38941;53.254;6.600;2023-08-30T07:54:55;15.70;99.90
51837;DHT22;38941;53.254;6.600;2023-08-30T07:56:58;15.20;99.90
51837;DHT22;38941;53.254;6.600;2023-08-30T08:01:06;16.00;99.90
51837;DHT22;38941;53.254;6.600;2023-08-30T08:03:07;16.10;99.90
51837;DHT22;38941;53.254;6.600;2023-08-30T08:07:09;16.10;99.90
51837;DHT22;38941;53.254;6.600;2023-08-30T08:09:11;16.30;99.90
51837;DHT22;38941;53.254;6.600;2023-08-30T08:17:17;16.20;99.90
51837;DHT22;38941;53.254;6.600;2023-08-30T08:19:19;16.40;99.90
51837;DHT22;38941;53.254;6.600;2023-08-30T08:21:20;17.70;99.90
51837;DHT22;38941;53.254;6.600;2023-08-30T08:23:26;16.50;99.90
51837;DHT22;38941;53.254;6.600;2023-08-30T08:25:26;16.50;99.90
51837;DHT22;38941;53.254;6.600;2023-08-30T08:27:27;16.60;99.90
51837;DHT22;38941;53.254;6.600;2023-08-30T08:29:28;16.60;99.90
51837;DHT22;38941;53.254;6.600;2023-08-30T08:31:29;16.60;99.90
51837;DHT22;38941;53.254;6.600;2023-08-30T08:33:29;16.60;99.90
51837;DHT22;38941;53.254;6.600;2023-08-30T08:35:30;16.60;99.90
51837;DHT22;38941;53.254;6.600;2023-08-30T08:37:31;16.70;99.90
51837;DHT22;38941;53.254;6.600;2023-08-30T08:39:32;16.70;99.90
51837;DHT22;38941;53.254;6.600;2023-08-30T08:47:48;16.70;99.90
51837;DHT22;38941;53.254;6.600;2023-08-30T08:49:51;16.80;99.90
51837;DHT22;38941;53.254;6.600;2023-08-30T08:51:52;16.90;99.90
51837;DHT22;38941;53.254;6.600;2023-08-30T08:53:55;16.90;99.90
51837;DHT22;38941;53.254;6.600;2023-08-30T08:56:01;16.90;99.90
51837;DHT22;38941;53.254;6.600;2023-08-30T08:58:03;17.00;99.90
51837;DHT22;38941;53.254;6.600;2023-08-30T09:00:06;17.00;99.90
51837;DHT22;38941;53.254;6.600;2023-08-30T09:02:07;17.00;99.90
51837;DHT22;38941;53.254;6.600;2023-08-30T09:04:11;17.00;99.90
51837;DHT22;38941;53.254;6.600;2023-08-30T09:06:12;17.00;99.90
51837;DHT22;38941;53.254;6.600;2023-08-30T09:08:14;17.00;99.90
51837;DHT22;38941;53.254;6.600;2023-08-30T09:10:16;16.90;99.90
51837;DHT22;38941;53.254;6.600;2023-08-30T09:12:16;16.90;99.90
51837;DHT22;38941;53.254;6.600;2023-08-30T09:14:18;17.50;99.90
51837;DHT22;38941;53.254;6.600;2023-08-30T09:16:19;16.80;99.90
51837;DHT22;38941;53.254;6.600;2023-08-30T09:18:19;16.80;99.90
51837;DHT22;38941;53.254;6.600;2023-08-30T09:20:20;16.70;99.90
51837;DHT22;38941;53.254;6.600;2023-08-30T09:22:21;16.60;99.90
51837;DHT22;38941;53.254;6.600;2023-08-30T09:24:22;16.60;99.90
51837;DHT22;38941;53.254;6.600;2023-08-30T09:26:23;16.50;99.90
51837;DHT22;38941;53.254;6.600;2023-08-30T09:28:25;16.50;99.90
51837;DHT22;38941;53.254;6.600;2023-08-30T09:30:26;16.50;99.90
51837;DHT22;38941;53.254;6.600;2023-08-30T09:32:27;16.50;99.90
51837;DHT22;38941;53.254;6.600;2023-08-30T09:34:28;16.50;99.90
51837;DHT22;38941;53.254;6.600;2023-08-30T09:36:35;16.50;99.90
51837;DHT22;38941;53.254;6.600;2023-08-30T09:38:37;16.50;99.90
51837;DHT22;38941;53.254;6.600;2023-08-30T09:40:37;16.50;99.90
51837;DHT22;38941;53.254;6.600;2023-08-30T09:42:41;16.50;99.90
51837;DHT22;38941;53.254;6.600;2023-08-30T09:44:45;16.40;99.90
51837;DHT22;38941;53.254;6.600;2023-08-30T09:46:51;16.40;99.90
51837;DHT22;38941;53.254;6.600;2023-08-30T09:48:54;16.50;99.90
51837;DHT22;38941;53.254;6.600;2023-08-30T09:50:57;16.60;99.90
51837;DHT22;38941;53.254;6.600;2023-08-30T09:53:00;16.60;99.90
51837;DHT22;38941;53.254;6.600;2023-08-30T09:55:03;16.70;99.90
51837;DHT22;38941;53.254;6.600;2023-08-30T09:57:05;16.70;99.90
51837;DHT22;38941;53.254;6.600;2023-08-30T09:59:13;16.70;99.90
51837;DHT22;38941;53.254;6.600;2023-08-30T10:01:15;16.70;99.90
51837;DHT22;38941;53.254;6.600;2023-08-30T10:03:16;16.70;99.90
51837;DHT22;38941;53.254;6.600;2023-08-30T10:05:19;16.80;99.90
51837;DHT22;38941;53.254;6.600;2023-08-30T10:07:24;16.80;99.90
51837;DHT22;38941;53.254;6.600;2023-08-30T10:09:25;16.70;99.90
51837;DHT22;38941;53.254;6.600;2023-08-30T10:11:27;16.90;99.90
51837;DHT22;38941;53.254;6.600;2023-08-30T10:13:29;16.90;99.90
51837;DHT22;38941;53.254;6.600;2023-08-30T10:15:33;16.90;99.90
51837;DHT22;38941;53.254;6.600;2023-08-30T10:17:38;17.00;99.90
51837;DHT22;38941;53.254;6.600;2023-08-30T10:19:42;17.10;99.90
51837;DHT22;38941;53.254;6.600;2023-08-30T10:21:44;17.20;99.90
51837;DHT22;38941;53.254;6.600;2023-08-30T10:23:48;17.30;99.90
51837;DHT22;38941;53.254;6.600;2023-08-30T10:25:50;17.40;99.90
51837;DHT22;38941;53.254;6.600;2023-08-30T10:27:53;17.40;99.90
51837;DHT22;38941;53.254;6.600;2023-08-30T10:29:54;17.30;99.90
51837;DHT22;38941;53.254;6.600;2023-08-30T10:31:56;17.30;99.90
51837;DHT22;38941;53.254;6.600;2023-08-30T10:34:15;17.30;99.90
51837;DHT22;38941;53.254;6.600;2023-08-30T10:36:26;17.30;99.90
51837;DHT22;38941;53.254;6.600;2023-08-30T10:38:35;17.30;99.90
51837;DHT22;38941;53.254;6.600;2023-08-30T10:40:48;17.30;99.90
51837;DHT22;38941;53.254;6.600;2023-08-30T10:43:03;17.30;99.90
51837;DHT22;38941;53.254;6.600;2023-08-30T10:45:05;17.40;99.90
51837;DHT22;38941;53.254;6.600;2023-08-30T10:47:06;17.30;99.90
51837;DHT22;38941;53.254;6.600;2023-08-30T10:49:14;17.40;99.90
51837;DHT22;38941;53.254;6.600;2023-08-30T10:51:34;17.40;99.90
51837;DHT22;38941;53.254;6.600;2023-08-30T10:53:36;17.40;99.90
51837;DHT22;38941;53.254;6.600;2023-08-30T10:55:37;17.30;99.90
51837;DHT22;38941;53.254;6.600;2023-08-30T10:57:42;17.40;99.90
51837;DHT22;38941;53.254;6.600;2023-08-30T11:02:14;17.40;99.90
51837;DHT22;38941;53.254;6.600;2023-08-30T11:04:16;17.30;99.90
51837;DHT22;38941;53.254;6.600;2023-08-30T11:06:17;17.30;99.90
51837;DHT22;38941;53.254;6.600;2023-08-30T11:08:18;17.30;99.90
51837;DHT22;38941;53.254;6.600;2023-08-30T11:10:21;17.30;99.90
51837;DHT22;38941;53.254;6.600;2023-08-30T11:12:21;17.40;99.90
51837;DHT22;38941;53.254;6.600;2023-08-30T11:14:25;17.40;99.90
51837;DHT22;38941;53.254;6.600;2023-08-30T11:16:26;17.40;99.90
51837;DHT22;38941;53.254;6.600;2023-08-30T11:18:26;17.40;99.90
51837;DHT22;38941;53.254;6.600;2023-08-30T11:20:27;17.40;99.90
51837;DHT22;38941;53.254;6.600;2023-08-30T11:22:28;17.40;99.90
51837;DHT22;38941;53.254;6.600;2023-08-30T11:24:29;17.50;99.90
51837;DHT22;38941;53.254;6.600;2023-08-30T11:26:30;17.50;99.90
51837;DHT22;38941;53.254;6.600;2023-08-30T11:28:31;17.50;99.90
51837;DHT22;38941;53.254;6.600;2023-08-30T11:30:31;17.60;99.90
51837;DHT22;38941;53.254;6.600;2023-08-30T11:32:33;17.60;99.90
51837;DHT22;38941;53.254;6.600;2023-08-30T11:34:36;17.70;99.90
51837;DHT22;38941;53.254;6.600;2023-08-30T11:36:38;17.60;99.90
51837;DHT22;38941;53.254;6.600;2023-08-30T11:38:40;17.70;99.90
51837;DHT22;38941;53.254;6.600;2023-08-30T11:40:49;17.70;99.90
51837;DHT22;38941;53.254;6.600;2023-08-30T11:42:50;17.80;99.90
51837;DHT22;38941;53.254;6.600;2023-08-30T11:44:51;17.80;99.90
51837;DHT22;38941;53.254;6.600;2023-08-30T11:47:01;17.80;99.90
51837;DHT22;38941;53.254;6.600;2023-08-30T11:49:03;18.00;99.90
51837;DHT22;38941;53.254;6.600;2023-08-30T11:51:04;17.80;99.90
51837;DHT22;38941;53.254;6.600;2023-08-30T11:53:05;17.80;99.90
51837;DHT22;38941;53.254;6.600;2023-08-30T11:55:06;17.80;99.90
51837;DHT22;38941;53.254;6.600;2023-08-30T11:57:08;17.80;99.90
51837;DHT22;38941;53.254;6.600;2023-08-30T11:59:18;17.70;99.90
51837;DHT22;38941;53.254;6.600;2023-08-30T12:01:20;17.70;99.90
51837;DHT22;38941;53.254;6.600;2023-08-30T12:03:21;16.60;99.90
51837;DHT22;38941;53.254;6.600;2023-08-30T12:05:22;17.70;99.90
51837;DHT22;38941;53.254;6.600;2023-08-30T12:07:24;17.60;99.90
51837;DHT22;38941;53.254;6.600;2023-08-30T12:09:31;17.60;99.90
51837;DHT22;38941;53.254;6.600;2023-08-30T12:11:32;17.50;99.90
51837;DHT22;38941;53.254;6.600;2023-08-30T12:13:34;17.50;99.90
51837;DHT22;38941;53.254;6.600;2023-08-30T12:15:39;17.50;99.90
51837;DHT22;38941;53.254;6.600;2023-08-30T12:17:40;17.50;99.90
51837;DHT22;38941;53.254;6.600;2023-08-30T12:19:41;17.40;99.90
51837;DHT22;38941;53.254;6.600;2023-08-30T12:21:43;17.40;99.90
51837;DHT22;38941;53.254;6.600;2023-08-30T12:23:44;17.30;99.90
51837;DHT22;38941;53.254;6.600;2023-08-30T12:25:44;17.20;99.90
51837;DHT22;38941;53.254;6.600;2023-08-30T12:27:45;17.20;99.90
51837;DHT22;38941;53.254;6.600;2023-08-30T12:29:47;16.60;99.90
51837;DHT22;38941;53.254;6.600;2023-08-30T12:31:56;17.00;99.90
51837;DHT22;38941;53.254;6.600;2023-08-30T12:34:00;16.90;99.90
51837;DHT22;38941;53.254;6.600;2023-08-30T12:36:01;16.70;99.90
51837;DHT22;38941;53.254;6.600;2023-08-30T12:38:02;16.60;99.90
51837;DHT22;38941;53.254;6.600;2023-08-30T12:40:04;16.50;99.90
51837;DHT22;38941;53.254;6.600;2023-08-30T12:42:06;16.00;99.90
51837;DHT22;38941;53.254;6.600;2023-08-30T12:44:07;16.60;99.90
51837;DHT22;38941;53.254;6.600;2023-08-30T12:46:08;16.50;99.90
51837;DHT22;38941;53.254;6.600;2023-08-30T12:48:10;16.40;99.90
51837;DHT22;38941;53.254;6.600;2023-08-30T12:50:11;16.40;99.90
51837;DHT22;38941;53.254;6.600;2023-08-30T12:52:12;16.40;99.90
51837;DHT22;38941;53.254;6.600;2023-08-30T12:54:13;16.40;99.90
51837;DHT22;38941;53.254;6.600;2023-08-30T12:56:13;16.40;99.90
51837;DHT22;38941;53.254;6.600;2023-08-30T12:58:14;16.30;99.90
51837;DHT22;38941;53.254;6.600;2023-08-30T13:00:15;16.20;99.90
51837;DHT22;38941;53.254;6.600;2023-08-30T13:02:16;16.20;99.90
51837;DHT22;38941;53.254;6.600;2023-08-30T13:04:19;16.00;99.90
51837;DHT22;38941;53.254;6.600;2023-08-30T13:06:21;16.10;99.90
51837;DHT22;38941;53.254;6.600;2023-08-30T13:08:21;16.00;99.90
51837;DHT22;38941;53.254;6.600;2023-08-30T13:10:22;15.90;99.90
51837;DHT22;38941;53.254;6.600;2023-08-30T13:12:23;15.90;99.90